Ormesby Saint Margaret, United Kingdom
Current Conditions -  °F | °C
As of 7:50 AM on Saturday 20 Dec 2014 (Local Time) from EGSD Reporting Station
Scattered Clouds Scattered Clouds  
Wind Chill: 36°   Ceiling: Unl
Heat Index: 45°   Visibility: 6mi
Dew Point: 39°   Wind: 22mph
Humidity: 81%   Direction: 250°WSW
Pressure: 30.09"   Gusts: NA
Location:  52.67°N, 1.7°E
Report Text: EGSD 200750Z 25019KT 9999 SCT038 07/04 Q1019
Loading
Personal Weather Stations






























Interactive Weather Map New forecast layout! Learn more

10-Day Weather Forecast

Advertisements
Track Severe Weather on mobile